Time;durP1;ratioP1;P1;durP2;ratioP2;P2;SDS_P1;SDS_P2;PMS_P1;PMS_P2;Temp;Humidity;BMP_temperature;BMP_pressure;BME280_temperature;BME280_humidity;BME280_pressure;Samples;Min_cycle;Max_cycle;Signal;HPM_P1;HPM_P2
2021/11/13 00:01:31;;;;;;;1.73;1.30;;;3.40;98.00;;;;;;5114713;28;20451;-70
2021/11/13 00:03:58;;;;;;;3.50;2.20;;;3.40;98.00;;;;;;5114932;28;20459;-69
2021/11/13 00:06:25;;;;;;;1.80;1.60;;;3.40;98.00;;;;;;5114694;28;21040;-68
2021/11/13 00:08:54;;;;;;;2.60;1.83;;;3.60;98.00;;;;;;5096296;28;20455;-70
2021/11/13 00:11:21;;;;;;;7.47;2.07;;;3.40;98.00;;;;;;5114074;28;20450;-69
2021/11/13 00:13:52;;;;;;;3.30;2.30;;;3.30;98.00;;;;;;5113985;28;20501;-70
2021/11/13 00:16:19;;;;;;;1.80;1.43;;;3.50;98.00;;;;;;5114068;28;20769;-68
2021/11/13 00:18:47;;;;;;;1.20;1.10;;;3.60;98.00;;;;;;5113788;28;20455;-70
2021/11/13 00:21:15;;;;;;;1.73;1.63;;;3.60;98.00;;;;;;5114047;28;20464;-68
2021/11/13 00:23:43;;;;;;;5.53;1.93;;;3.60;98.00;;;;;;5113944;28;20455;-70
2021/11/13 00:26:12;;;;;;;1.77;1.67;;;3.60;98.00;;;;;;5113886;28;20520;-68
2021/11/13 00:28:39;;;;;;;2.43;1.50;;;3.60;98.00;;;;;;5113808;28;20451;-68
2021/11/13 00:31:06;;;;;;;1.73;1.67;;;3.60;98.00;;;;;;5113798;28;20497;-71
2021/11/13 00:33:33;;;;;;;1.97;1.60;;;3.50;98.00;;;;;;5113313;28;20554;-68
2021/11/13 00:36:00;;;;;;;1.30;1.20;;;3.40;98.00;;;;;;5112562;28;20459;-69
2021/11/13 00:38:27;;;;;;;2.30;2.17;;;3.40;98.00;;;;;;5113770;28;20447;-68
2021/11/13 00:40:54;;;;;;;1.30;1.20;;;3.60;98.00;;;;;;5112509;28;20454;-69
2021/11/13 00:43:23;;;;;;;1.50;1.47;;;3.50;98.00;;;;;;5113471;28;20451;-69
2021/11/13 00:45:50;;;;;;;1.33;1.30;;;3.50;98.00;;;;;;5113595;28;20451;-69
2021/11/13 00:48:18;;;;;;;2.33;1.80;;;3.50;98.00;;;;;;5112157;28;20463;-68
2021/11/13 00:50:48;;;;;;;1.80;1.30;;;3.50;98.00;;;;;;5113471;28;20516;-69
2021/11/13 00:53:16;;;;;;;1.83;1.50;;;3.60;98.00;;;;;;5112877;28;20516;-69
2021/11/13 00:55:44;;;;;;;3.00;2.70;;;3.60;98.00;;;;;;5113483;28;20525;-68
2021/11/13 00:58:11;;;;;;;1.10;1.00;;;3.80;98.00;;;;;;5113370;28;20495;-69
2021/11/13 01:00:39;;;;;;;1.93;1.77;;;3.70;98.00;;;;;;5113413;28;20512;-68
2021/11/13 01:03:08;;;;;;;1.27;1.20;;;3.70;98.00;;;;;;5113282;28;20512;-68
2021/11/13 01:05:35;;;;;;;2.03;1.43;;;3.80;98.00;;;;;;5113316;28;20454;-68
2021/11/13 01:08:02;;;;;;;1.47;1.33;;;3.70;98.00;;;;;;5113254;28;20455;-69
2021/11/13 01:10:29;;;;;;;2.27;1.97;;;3.80;98.00;;;;;;5113366;28;20952;-68
2021/11/13 01:12:56;;;;;;;1.40;1.20;;;3.70;98.00;;;;;;5112898;28;20470;-69
2021/11/13 01:15:23;;;;;;;1.70;1.60;;;3.70;98.00;;;;;;5113170;28;20545;-69
2021/11/13 01:17:52;;;;;;;3.23;2.10;;;3.60;98.00;;;;;;5112937;28;20451;-69
2021/11/13 01:20:21;;;;;;;4.07;2.10;;;3.60;98.00;;;;;;5113030;28;20511;-69
2021/11/13 01:22:49;;;;;;;2.33;1.50;;;3.70;98.00;;;;;;5112444;28;20469;-69
2021/11/13 01:25:17;;;;;;;2.23;1.27;;;3.60;98.00;;;;;;5112869;28;20455;-70
2021/11/13 01:27:44;;;;;;;2.37;2.27;;;3.60;98.00;;;;;;5111461;28;20932;-69
2021/11/13 01:30:13;;;;;;;1.30;1.20;;;3.70;98.00;;;;;;5112809;28;20451;-69
2021/11/13 01:32:40;;;;;;;2.20;1.53;;;3.70;98.00;;;;;;5112479;28;20953;-69
2021/11/13 01:35:10;;;;;;;1.97;1.37;;;3.60;98.00;;;;;;5112436;28;20486;-68
2021/11/13 01:37:37;;;;;;;1.47;1.43;;;3.50;98.00;;;;;;5112410;28;20464;-68
2021/11/13 01:40:06;;;;;;;5.57;2.33;;;3.40;98.00;;;;;;5112545;28;20523;-69
2021/11/13 01:42:35;;;;;;;3.20;1.90;;;3.40;98.00;;;;;;5112294;28;20504;-68
2021/11/13 01:45:03;;;;;;;3.93;2.00;;;3.30;98.00;;;;;;5112451;28;20459;-69
2021/11/13 01:47:30;;;;;;;2.50;2.37;;;3.40;98.00;;;;;;5112189;28;20889;-70
2021/11/13 01:49:57;;;;;;;4.30;2.23;;;3.40;98.00;;;;;;5112244;28;21346;-69
2021/11/13 01:52:26;;;;;;;1.20;1.00;;;3.30;98.00;;;;;;5112321;28;20973;-68
2021/11/13 01:54:53;;;;;;;1.20;1.00;;;3.30;98.00;;;;;;5112151;28;20498;-68
2021/11/13 01:57:22;;;;;;;2.67;1.70;;;3.30;98.00;;;;;;5111952;28;20462;-68
2021/11/13 01:59:51;;;;;;;1.93;1.67;;;3.30;98.00;;;;;;5112315;28;20492;-69
2021/11/13 02:02:19;;;;;;;3.00;2.90;;;3.40;98.00;;;;;;5112274;28;20455;-68
2021/11/13 02:04:47;;;;;;;1.83;1.57;;;3.40;98.00;;;;;;5112086;28;21399;-68
2021/11/13 02:07:14;;;;;;;2.07;1.70;;;3.50;98.00;;;;;;5112109;28;20451;-69
2021/11/13 02:09:43;;;;;;;1.50;1.40;;;3.50;98.00;;;;;;5112232;28;20455;-69
2021/11/13 02:12:10;;;;;;;1.20;1.20;;;3.50;98.00;;;;;;5111939;28;20458;-69
2021/11/13 02:14:37;;;;;;;1.20;1.20;;;3.60;98.00;;;;;;5112021;28;20482;-68
2021/11/13 02:17:05;;;;;;;1.80;1.60;;;3.60;98.00;;;;;;5111040;28;20455;-69
2021/11/13 02:19:32;;;;;;;3.50;1.67;;;3.70;98.00;;;;;;5110863;28;20458;-68
2021/11/13 02:22:02;;;;;;;3.30;2.03;;;3.50;98.00;;;;;;5112124;28;21201;-68
2021/11/13 02:24:29;;;;;;;2.17;1.77;;;3.40;98.00;;;;;;5110833;28;20471;-68
2021/11/13 02:26:59;;;;;;;1.73;1.73;;;3.40;98.00;;;;;;5112109;28;20454;-69
2021/11/13 02:29:27;;;;;;;2.13;1.63;;;3.50;98.00;;;;;;5111034;28;20504;-69
2021/11/13 02:31:55;;;;;;;1.20;1.00;;;3.60;98.00;;;;;;5111086;28;20856;-69
2021/11/13 02:34:23;;;;;;;1.63;1.53;;;3.70;98.00;;;;;;5113641;28;20483;-68
2021/11/13 02:36:50;;;;;;;1.57;1.23;;;3.50;98.00;;;;;;5116060;28;20458;-68
2021/11/13 02:39:19;;;;;;;3.50;1.67;;;3.40;98.00;;;;;;5116129;28;20459;-69
2021/11/13 02:41:48;;;;;;;1.20;0.97;;;3.40;98.00;;;;;;5114521;28;21197;-68
2021/11/13 02:44:17;;;;;;;2.60;1.70;;;3.50;98.00;;;;;;5116080;28;20508;-68
2021/11/13 02:46:44;;;;;;;2.40;1.63;;;3.50;98.00;;;;;;5115764;28;20481;-69
2021/11/13 02:49:14;;;;;;;2.50;1.63;;;3.50;98.00;;;;;;5114427;28;21113;-68
2021/11/13 02:51:41;;;;;;;2.80;1.60;;;3.50;98.00;;;;;;5115833;28;20499;-68
2021/11/13 02:54:09;;;;;;;1.93;1.23;;;3.40;98.00;;;;;;5115697;28;20895;-68
2021/11/13 02:56:37;;;;;;;1.77;1.63;;;3.40;98.00;;;;;;5115559;28;20459;-68
2021/11/13 02:59:05;;;;;;;1.57;1.50;;;3.40;98.00;;;;;;5115694;28;20458;-68
2021/11/13 03:01:32;;;;;;;2.80;1.67;;;3.40;98.00;;;;;;5115528;28;20885;-70
2021/11/13 03:03:59;;;;;;;3.10;1.83;;;3.50;98.00;;;;;;5114021;28;20515;-68
2021/11/13 03:06:26;;;;;;;2.37;1.67;;;3.40;98.00;;;;;;5115528;28;20454;-70
2021/11/13 03:08:54;;;;;;;1.60;1.60;;;3.40;98.00;;;;;;5115315;28;21007;-68
2021/11/13 03:11:22;;;;;;;1.10;1.07;;;3.60;98.00;;;;;;5115346;28;20463;-68
2021/11/13 03:13:52;;;;;;;4.07;2.53;;;3.60;98.00;;;;;;5114938;28;20519;-68
2021/11/13 03:16:20;;;;;;;2.30;1.53;;;3.60;98.00;;;;;;5115433;28;20920;-68
2021/11/13 03:18:48;;;;;;;2.90;2.00;;;3.60;98.00;;;;;;5115145;28;20454;-69
2021/11/13 03:21:16;;;;;;;1.20;1.03;;;3.70;98.00;;;;;;5114074;28;20455;-69
2021/11/13 03:23:45;;;;;;;1.60;1.40;;;3.70;98.00;;;;;;5115270;28;20482;-69
2021/11/13 03:26:19;;;;;;;3.17;1.93;;;3.60;98.00;;;;;;5115456;28;21018;-68
2021/11/13 03:28:52;;;;;;;2.23;1.33;;;3.50;98.00;;;;;;5115040;28;20466;-69
2021/11/13 03:31:22;;;;;;;2.43;1.67;;;3.40;98.00;;;;;;5115246;28;20784;-69
2021/11/13 03:33:49;;;;;;;5.13;1.53;;;3.20;98.00;;;;;;5113786;28;20484;-68
2021/11/13 03:36:19;;;;;;;2.20;1.50;;;3.30;98.00;;;;;;5115031;28;20478;-68
2021/11/13 03:38:47;;;;;;;2.40;1.70;;;3.30;98.00;;;;;;5114999;28;20479;-69
2021/11/13 03:41:15;;;;;;;1.17;1.00;;;3.40;98.00;;;;;;5113900;28;20458;-69
2021/11/13 03:43:42;;;;;;;2.07;1.30;;;3.30;98.00;;;;;;5114998;28;20869;-68
2021/11/13 03:46:11;;;;;;;1.20;1.20;;;3.20;98.00;;;;;;5114315;28;20828;-69
2021/11/13 03:48:39;;;;;;;3.30;2.13;;;3.10;98.00;;;;;;5115223;28;20515;-69
2021/11/13 03:51:06;;;;;;;1.73;1.50;;;3.00;98.00;;;;;;5114713;28;20516;-67
2021/11/13 03:53:35;;;;;;;1.30;1.13;;;3.00;98.00;;;;;;5114910;28;20455;-69
2021/11/13 03:56:02;;;;;;;1.83;1.73;;;3.00;98.00;;;;;;5113185;28;20482;-68
2021/11/13 03:58:30;;;;;;;1.60;1.60;;;3.20;98.00;;;;;;5114434;28;20451;-68
2021/11/13 04:00:57;;;;;;;1.33;1.30;;;3.20;98.00;;;;;;5114504;28;20511;-69
2021/11/13 04:03:25;;;;;;;3.03;1.60;;;3.10;98.00;;;;;;5114275;28;20508;-68
2021/11/13 04:05:53;;;;;;;2.50;1.40;;;3.20;98.00;;;;;;5114177;28;20810;-69
2021/11/13 04:08:20;;;;;;;1.30;1.30;;;3.20;98.00;;;;;;5114170;28;20499;-68
2021/11/13 04:10:47;;;;;;;2.60;2.20;;;3.10;98.00;;;;;;5113998;28;20953;-69
2021/11/13 04:13:14;;;;;;;1.40;1.30;;;3.00;98.00;;;;;;5113993;28;20507;-69
2021/11/13 04:15:41;;;;;;;1.40;1.33;;;2.90;98.00;;;;;;5113783;28;20532;-69
2021/11/13 04:18:09;;;;;;;1.20;1.10;;;2.90;98.00;;;;;;5114135;28;20444;-68
2021/11/13 04:20:42;;;;;;;1.57;1.43;;;2.90;98.00;;;;;;5114181;28;20459;-70
2021/11/13 04:23:09;;;;;;;1.53;1.47;;;3.00;98.00;;;;;;5113951;28;21160;-68
2021/11/13 04:25:36;;;;;;;3.00;1.97;;;3.10;98.00;;;;;;5114061;28;20455;-68
2021/11/13 04:28:04;;;;;;;1.40;1.20;;;3.10;98.00;;;;;;5113838;28;20459;-68
2021/11/13 04:30:31;;;;;;;1.50;1.30;;;3.10;98.00;;;;;;5113943;28;20871;-68
2021/11/13 04:32:58;;;;;;;1.97;1.83;;;3.10;98.00;;;;;;5113828;28;20484;-68
2021/11/13 04:35:45;;;;;;;3.33;2.40;;;3.20;98.00;;;;;;5113733;28;20482;-68
2021/11/13 04:38:14;;;;;;;3.67;1.47;;;3.20;98.00;;;;;;5113760;28;20862;-68
2021/11/13 04:40:41;;;;;;;2.80;1.20;;;3.10;98.00;;;;;;5113933;28;20507;-68
2021/11/13 04:43:08;;;;;;;1.63;1.53;;;3.00;98.00;;;;;;5113649;28;20489;-70
2021/11/13 04:45:36;;;;;;;1.20;1.10;;;3.00;98.00;;;;;;5113608;28;20512;-69
2021/11/13 04:48:03;;;;;;;1.37;1.27;;;3.00;98.00;;;;;;5113551;28;20455;-68
2021/11/13 04:50:31;;;;;;;1.30;1.10;;;3.00;98.00;;;;;;5113671;28;21476;-69
2021/11/13 04:52:58;;;;;;;1.53;1.37;;;3.10;98.00;;;;;;5112936;28;20463;-67
2021/11/13 04:55:27;;;;;;;1.50;1.40;;;3.10;98.00;;;;;;5112697;28;20859;-68
2021/11/13 04:57:54;;;;;;;3.90;1.60;;;3.00;98.00;;;;;;5111572;28;20556;-70
2021/11/13 05:00:25;;;;;;;1.30;1.20;;;2.90;98.00;;;;;;5113234;28;20560;-68
2021/11/13 05:02:53;;;;;;;1.30;1.10;;;3.00;98.00;;;;;;5113356;28;20501;-68
2021/11/13 05:05:21;;;;;;;1.97;1.43;;;3.10;98.00;;;;;;5113526;28;20866;-68
2021/11/13 05:07:48;;;;;;;1.50;1.20;;;3.20;98.00;;;;;;5113315;28;20455;-70
2021/11/13 05:10:16;;;;;;;2.23;1.73;;;3.20;98.00;;;;;;5113361;28;20526;-68
2021/11/13 05:12:45;;;;;;;1.30;1.00;;;3.30;98.00;;;;;;5112769;28;21080;-68
2021/11/13 05:15:12;;;;;;;1.20;1.10;;;3.30;98.00;;;;;;5112783;28;20542;-68
2021/11/13 05:17:39;;;;;;;1.17;1.00;;;3.30;98.00;;;;;;5112590;28;20482;-69
2021/11/13 05:20:09;;;;;;;1.87;1.50;;;3.30;98.00;;;;;;5112639;28;21017;-69
2021/11/13 05:22:36;;;;;;;2.50;1.30;;;3.20;98.00;;;;;;5112874;28;20451;-68
2021/11/13 05:25:04;;;;;;;1.83;1.70;;;3.30;98.00;;;;;;5112748;28;20458;-67
2021/11/13 05:27:31;;;;;;;1.63;1.50;;;3.30;98.00;;;;;;5112606;28;20505;-69
2021/11/13 05:30:01;;;;;;;2.23;1.50;;;3.30;98.00;;;;;;5112525;28;20462;-67
2021/11/13 05:32:30;;;;;;;1.87;1.57;;;3.40;98.00;;;;;;5112727;28;21064;-69
2021/11/13 05:34:57;;;;;;;1.20;1.00;;;3.40;98.00;;;;;;5112523;28;20825;-69
2021/11/13 05:37:24;;;;;;;1.37;1.33;;;3.30;98.00;;;;;;5112572;28;20451;-68
2021/11/13 05:39:51;;;;;;;1.30;1.30;;;3.30;98.00;;;;;;5111531;28;20473;-70
2021/11/13 05:42:18;;;;;;;1.20;1.03;;;3.40;98.00;;;;;;5112484;28;20516;-68
2021/11/13 05:44:46;;;;;;;1.70;1.37;;;3.40;98.00;;;;;;5112491;28;20459;-68
2021/11/13 05:47:14;;;;;;;1.30;1.27;;;3.40;98.00;;;;;;5112479;28;20463;-68
2021/11/13 05:49:42;;;;;;;2.90;1.47;;;3.60;98.00;;;;;;5112696;28;21010;-68
2021/11/13 05:52:09;;;;;;;1.20;1.13;;;3.60;98.00;;;;;;5112308;28;20458;-68
2021/11/13 05:54:36;;;;;;;1.27;1.20;;;3.60;98.00;;;;;;5112463;28;20451;-70
2021/11/13 05:57:03;;;;;;;1.57;1.50;;;3.60;98.00;;;;;;5112360;28;20463;-69
2021/11/13 05:59:30;;;;;;;1.40;1.27;;;3.70;98.00;;;;;;5112347;28;20463;-70
2021/11/13 06:01:58;;;;;;;2.57;1.40;;;3.70;98.00;;;;;;5112298;28;20833;-69
2021/11/13 06:04:31;;;;;;;1.50;1.43;;;3.70;98.00;;;;;;5112441;28;20512;-70
2021/11/13 06:06:59;;;;;;;1.30;1.00;;;3.70;98.00;;;;;;5112253;28;20501;-69
2021/11/13 06:09:26;;;;;;;2.57;1.60;;;3.70;98.00;;;;;;5112193;28;20455;-71
2021/11/13 06:11:53;;;;;;;1.30;1.20;;;3.70;98.00;;;;;;5112265;28;21194;-69
2021/11/13 06:14:20;;;;;;;1.80;1.23;;;3.60;98.00;;;;;;5112217;28;20451;-70
2021/11/13 06:16:47;;;;;;;1.60;1.50;;;3.50;98.00;;;;;;5111934;28;20483;-69
2021/11/13 06:19:14;;;;;;;1.70;1.60;;;3.40;98.00;;;;;;5112341;28;20462;-69
2021/11/13 06:21:43;;;;;;;7.70;2.03;;;3.50;98.00;;;;;;5112188;28;20857;-69
2021/11/13 06:24:10;;;;;;;1.20;1.10;;;3.50;98.00;;;;;;5112272;28;20459;-70
2021/11/13 06:26:37;;;;;;;2.90;1.60;;;3.50;98.00;;;;;;5112145;28;20508;-69
2021/11/13 06:29:05;;;;;;;1.90;1.47;;;3.70;98.00;;;;;;5110598;28;20460;-70
2021/11/13 06:31:32;;;;;;;2.60;2.40;;;3.50;98.00;;;;;;5112090;28;20554;-70
2021/11/13 06:33:59;;;;;;;1.30;1.30;;;3.60;98.00;;;;;;5111735;28;20500;-69
2021/11/13 06:36:30;;;;;;;2.70;1.63;;;3.50;98.00;;;;;;5111881;28;20494;-69
2021/11/13 06:38:59;;;;;;;1.20;1.10;;;3.60;98.00;;;;;;5111736;28;20463;-69
2021/11/13 06:41:29;;;;;;;1.80;1.73;;;3.50;98.00;;;;;;5112082;28;20543;-71
2021/11/13 06:43:58;;;;;;;1.73;1.40;;;3.50;98.00;;;;;;5111870;28;20451;-70
2021/11/13 06:46:26;;;;;;;1.30;1.30;;;3.30;98.00;;;;;;5110524;28;20502;-69
2021/11/13 06:48:53;;;;;;;1.20;1.20;;;3.30;98.00;;;;;;5111712;28;20450;-69
2021/11/13 06:51:21;;;;;;;2.70;2.13;;;3.30;98.00;;;;;;5111785;28;20455;-70
2021/11/13 06:53:48;;;;;;;1.87;1.63;;;3.30;98.00;;;;;;5111721;28;20529;-72
2021/11/13 06:56:16;;;;;;;1.73;1.57;;;3.40;98.00;;;;;;5111560;28;20555;-70
2021/11/13 06:58:43;;;;;;;2.70;1.80;;;3.40;98.00;;;;;;5111694;28;20513;-69
2021/11/13 07:01:10;;;;;;;1.30;1.20;;;3.40;98.00;;;;;;5111703;28;20451;-70
2021/11/13 07:03:38;;;;;;;2.23;1.50;;;3.50;98.00;;;;;;5111703;28;20451;-70
2021/11/13 07:06:05;;;;;;;2.17;1.30;;;3.60;98.00;;;;;;5111734;28;21021;-69
2021/11/13 07:08:32;;;;;;;4.47;1.90;;;3.70;98.00;;;;;;5111567;28;20459;-69
2021/11/13 07:10:59;;;;;;;1.30;1.30;;;3.90;98.00;;;;;;5093578;28;20459;-70
2021/11/13 07:13:28;;;;;;;1.43;1.20;;;3.80;98.00;;;;;;5111358;28;20486;-70
2021/11/13 07:15:55;;;;;;;1.77;1.70;;;3.70;98.00;;;;;;5111484;28;21090;-69
2021/11/13 07:18:22;;;;;;;1.60;1.23;;;3.80;98.00;;;;;;5111550;28;20551;-68
2021/11/13 07:20:54;;;;;;;1.20;1.20;;;4.00;98.00;;;;;;5113692;28;20523;-69
2021/11/13 07:23:21;;;;;;;1.60;1.30;;;3.90;98.00;;;;;;5115139;28;20486;-69
2021/11/13 07:25:49;;;;;;;1.30;1.23;;;3.90;98.00;;;;;;5115313;28;20511;-69
2021/11/13 07:28:18;;;;;;;1.20;1.10;;;4.00;98.00;;;;;;5114601;28;20457;-69
2021/11/13 07:30:49;;;;;;;3.87;1.73;;;4.00;98.00;;;;;;5115194;28;20463;-69
2021/11/13 07:33:16;;;;;;;1.70;1.23;;;4.10;98.00;;;;;;5115153;28;20490;-68
2021/11/13 07:35:44;;;;;;;1.30;1.10;;;4.20;98.00;;;;;;5115174;28;20483;-69
2021/11/13 07:38:12;;;;;;;3.00;1.70;;;4.20;98.00;;;;;;5114897;28;20569;-69
2021/11/13 07:40:39;;;;;;;1.70;1.67;;;4.20;98.00;;;;;;5114611;28;20455;-68
2021/11/13 07:43:07;;;;;;;1.53;1.47;;;4.10;98.00;;;;;;5114711;28;20842;-68
2021/11/13 07:45:35;;;;;;;2.30;2.10;;;4.10;98.00;;;;;;5113653;28;20536;-71
2021/11/13 07:48:05;;;;;;;1.50;1.10;;;4.20;98.00;;;;;;5114699;28;20459;-71
2021/11/13 07:50:34;;;;;;;1.30;1.23;;;4.20;98.00;;;;;;5114558;28;20538;-70
2021/11/13 07:53:01;;;;;;;3.33;1.50;;;4.20;98.00;;;;;;5114383;28;20591;-69
2021/11/13 07:55:28;;;;;;;2.93;1.63;;;4.30;98.00;;;;;;5114504;28;20540;-70
2021/11/13 07:57:55;;;;;;;2.10;1.57;;;4.30;98.00;;;;;;5114334;28;20459;-70
2021/11/13 08:00:26;;;;;;;1.73;1.40;;;4.30;98.00;;;;;;5114513;28;20517;-70
2021/11/13 08:02:53;;;;;;;1.30;1.23;;;4.30;98.00;;;;;;5114397;28;20455;-70
2021/11/13 08:05:24;;;;;;;2.63;2.37;;;4.30;98.00;;;;;;5114445;28;20455;-69
2021/11/13 08:07:51;;;;;;;1.97;1.40;;;4.60;98.00;;;;;;5096242;27;20472;-70
2021/11/13 08:10:19;;;;;;;1.30;1.20;;;4.40;98.00;;;;;;5119032;27;20950;-69
2021/11/13 08:12:47;;;;;;;1.57;1.30;;;4.30;98.00;;;;;;5120387;27;20497;-69
2021/11/13 08:15:17;;;;;;;1.43;1.37;;;4.40;98.00;;;;;;5113753;27;20794;-68
2021/11/13 08:17:44;;;;;;;1.30;1.17;;;4.30;98.00;;;;;;5113941;27;20470;-69
2021/11/13 08:20:13;;;;;;;1.47;1.10;;;4.30;98.00;;;;;;5113735;27;20490;-69
2021/11/13 08:22:42;;;;;;;2.17;1.93;;;4.30;98.00;;;;;;5129352;27;20855;-71
2021/11/13 08:25:12;;;;;;;1.30;1.30;;;4.30;98.00;;;;;;5121627;27;20458;-69
2021/11/13 08:27:39;;;;;;;1.23;1.07;;;4.40;98.00;;;;;;5114158;27;20576;-70
2021/11/13 08:30:09;;;;;;;2.17;1.70;;;4.40;98.00;;;;;;5119845;27;20978;-69
2021/11/13 08:32:36;;;;;;;3.30;1.20;;;4.40;98.00;;;;;;5121563;27;20465;-68
2021/11/13 08:35:04;;;;;;;1.40;1.20;;;4.40;98.00;;;;;;5114604;27;20941;-70
2021/11/13 08:37:33;;;;;;;2.20;1.60;;;4.40;98.00;;;;;;5120285;27;20536;-69
2021/11/13 08:40:02;;;;;;;1.20;1.00;;;4.40;98.00;;;;;;5114337;27;20448;-68
2021/11/13 08:42:29;;;;;;;1.70;1.60;;;4.40;98.00;;;;;;5129001;27;20501;-67
2021/11/13 08:44:57;;;;;;;2.00;1.77;;;4.50;98.00;;;;;;5122270;27;20478;-69
2021/11/13 08:47:24;;;;;;;1.30;1.30;;;4.40;98.00;;;;;;5106579;27;20480;-68
2021/11/13 08:49:52;;;;;;;1.30;1.13;;;4.50;98.00;;;;;;5100183;28;21000;-69
2021/11/13 08:52:20;;;;;;;1.20;1.10;;;4.60;98.00;;;;;;5100529;28;20484;-69
2021/11/13 08:54:48;;;;;;;2.33;1.60;;;4.70;98.00;;;;;;5091202;28;20516;-69
2021/11/13 08:57:17;;;;;;;1.60;1.37;;;4.70;98.00;;;;;;5099715;28;20901;-69
2021/11/13 08:59:46;;;;;;;5.67;1.30;;;4.90;98.00;;;;;;5092266;28;20905;-69
2021/11/13 09:02:17;;;;;;;3.37;2.33;;;4.90;98.00;;;;;;5099846;28;20867;-69
2021/11/13 09:04:47;;;;;;;2.50;1.57;;;5.10;98.00;;;;;;5098960;28;20447;-70
2021/11/13 09:07:15;;;;;;;1.20;1.20;;;5.10;98.00;;;;;;5080120;28;20946;-69
2021/11/13 09:09:42;;;;;;;1.20;1.10;;;5.00;98.00;;;;;;5105239;28;20444;-69
2021/11/13 09:12:14;;;;;;;1.87;1.53;;;5.20;98.00;;;;;;5055265;28;20847;-69
2021/11/13 09:14:42;;;;;;;3.97;1.60;;;5.30;98.00;;;;;;5090825;28;20465;-70
2021/11/13 09:17:09;;;;;;;1.80;1.20;;;5.40;98.00;;;;;;5091423;28;20523;-69
2021/11/13 09:19:36;;;;;;;1.70;1.60;;;5.30;98.00;;;;;;5098263;28;20464;-69
2021/11/13 09:22:04;;;;;;;1.63;1.40;;;5.20;98.00;;;;;;5100880;28;20456;-69
2021/11/13 09:24:31;;;;;;;1.57;1.33;;;5.30;98.00;;;;;;5091213;28;20451;-68
2021/11/13 09:26:58;;;;;;;1.40;1.30;;;5.30;98.00;;;;;;5086813;28;20485;-65
2021/11/13 09:29:25;;;;;;;1.80;1.63;;;5.40;98.00;;;;;;5091880;28;20513;-68
2021/11/13 09:31:54;;;;;;;1.10;0.97;;;5.40;98.00;;;;;;5098934;28;20452;-67
2021/11/13 09:34:22;;;;;;;1.47;1.40;;;5.70;98.00;;;;;;5099167;28;20457;-68
2021/11/13 09:36:50;;;;;;;1.90;1.70;;;6.00;98.00;;;;;;5090355;28;20484;-68
2021/11/13 09:39:17;;;;;;;3.93;2.60;;;6.00;98.00;;;;;;5100152;28;20460;-68
2021/11/13 09:41:49;;;;;;;1.70;1.50;;;6.00;98.00;;;;;;5091151;28;20460;-68
2021/11/13 09:44:18;;;;;;;1.60;1.50;;;6.00;98.00;;;;;;5099251;28;20457;-67
2021/11/13 09:46:46;;;;;;;1.43;1.37;;;6.10;98.00;;;;;;5100289;28;20454;-68
2021/11/13 09:49:16;;;;;;;1.63;1.43;;;6.20;98.00;;;;;;5099608;28;20536;-68
2021/11/13 09:51:43;;;;;;;2.83;2.10;;;6.90;98.00;;;;;;5089832;28;20531;-67
2021/11/13 09:54:10;;;;;;;1.20;1.10;;;7.20;98.00;;;;;;5098986;28;20556;-68
2021/11/13 09:56:37;;;;;;;2.80;2.03;;;7.70;98.00;;;;;;5096859;28;20472;-69
2021/11/13 09:59:04;;;;;;;1.67;1.27;;;7.90;98.00;;;;;;5092299;28;20545;-67
2021/11/13 10:01:32;;;;;;;1.40;1.30;;;8.00;98.00;;;;;;5097140;28;20455;-67
2021/11/13 10:03:59;;;;;;;1.50;1.20;;;8.00;98.00;;;;;;5107466;28;20462;-68
2021/11/13 10:06:28;;;;;;;1.53;1.33;;;7.90;98.00;;;;;;5098410;28;20507;-66
2021/11/13 10:08:55;;;;;;;2.50;1.73;;;8.90;98.00;;;;;;5102921;28;20495;-68
2021/11/13 10:11:27;;;;;;;2.13;1.67;;;9.90;98.00;;;;;;5091843;28;20458;-70
2021/11/13 10:13:56;;;;;;;2.63;1.70;;;9.90;98.00;;;;;;5096547;28;20481;-68
2021/11/13 10:16:31;;;;;;;2.73;1.40;;;9.30;98.00;;;;;;5098272;28;20536;-67
2021/11/13 10:19:03;;;;;;;2.20;2.00;;;8.80;98.00;;;;;;5098425;28;20519;-68
2021/11/13 10:21:32;;;;;;;1.70;1.50;;;8.30;98.00;;;;;;5086002;28;20455;-68
2021/11/13 10:24:04;;;;;;;1.70;1.50;;;8.10;98.00;;;;;;5070910;28;20547;-68
2021/11/13 10:26:34;;;;;;;2.23;1.40;;;7.90;98.00;;;;;;5087726;28;20462;-68
2021/11/13 10:29:09;;;;;;;1.47;1.30;;;7.80;98.00;;;;;;5107692;28;21016;-67
2021/11/13 10:31:39;;;;;;;1.40;1.30;;;7.70;98.00;;;;;;5082617;28;20454;-69
2021/11/13 10:34:08;;;;;;;4.03;2.00;;;7.80;98.00;;;;;;5099595;28;20447;-68
2021/11/13 10:36:39;;;;;;;1.60;1.57;;;7.90;98.00;;;;;;5098936;28;20481;-68
2021/11/13 10:39:09;;;;;;;1.30;1.20;;;7.90;98.00;;;;;;5099370;28;20458;-68
2021/11/13 10:41:44;;;;;;;4.30;2.30;;;8.10;98.00;;;;;;5089948;28;20462;-69
2021/11/13 10:44:11;;;;;;;1.60;1.50;;;8.20;98.00;;;;;;5099163;28;20899;-68
2021/11/13 10:46:45;;;;;;;2.70;1.80;;;8.30;98.00;;;;;;5090166;28;20490;-68
2021/11/13 10:49:12;;;;;;;1.80;1.50;;;8.30;98.00;;;;;;5077687;28;20471;-68
2021/11/13 10:51:48;;;;;;;2.90;1.77;;;8.50;98.00;;;;;;5088860;28;20540;-68
2021/11/13 10:54:17;;;;;;;2.60;1.50;;;9.50;98.00;;;;;;5093500;28;20459;-68
2021/11/13 10:56:46;;;;;;;3.10;1.87;;;10.40;98.00;;;;;;5098541;28;20536;-69
2021/11/13 10:59:13;;;;;;;2.13;1.93;;;11.20;98.00;;;;;;5102629;28;20511;-67
2021/11/13 11:01:44;;;;;;;1.90;1.80;;;11.40;98.00;;;;;;5097440;28;20451;-67
2021/11/13 11:04:15;;;;;;;3.50;2.20;;;11.00;98.00;;;;;;5098417;28;20452;-68
2021/11/13 11:06:51;;;;;;;8.27;2.10;;;10.60;98.00;;;;;;5094020;28;20459;-68
2021/11/13 11:09:24;;;;;;;1.80;1.67;;;10.30;98.00;;;;;;5099278;28;20454;-69
2021/11/13 11:11:54;;;;;;;2.20;1.60;;;10.00;98.00;;;;;;5101263;28;20882;-67
2021/11/13 11:14:23;;;;;;;2.73;1.90;;;9.60;98.00;;;;;;5103966;28;20536;-66
2021/11/13 11:16:52;;;;;;;1.77;1.70;;;9.50;98.00;;;;;;5099983;28;20551;-70
2021/11/13 11:19:21;;;;;;;4.00;2.07;;;9.20;98.00;;;;;;5103867;28;20548;-68
2021/11/13 11:21:59;;;;;;;2.43;1.90;;;9.10;98.00;;;;;;5108273;28;20466;-66
2021/11/13 11:24:33;;;;;;;1.37;1.30;;;8.80;98.00;;;;;;5100737;28;20526;-66
2021/11/13 11:27:07;;;;;;;1.70;1.60;;;8.70;98.00;;;;;;5101985;28;20491;-68
2021/11/13 11:29:36;;;;;;;2.90;2.33;;;8.80;98.00;;;;;;5093438;28;20508;-68
2021/11/13 11:32:06;;;;;;;1.73;1.67;;;8.70;98.00;;;;;;5101023;28;20464;-67
2021/11/13 11:34:35;;;;;;;1.80;1.60;;;8.50;98.00;;;;;;5101462;28;21015;-68
2021/11/13 11:37:11;;;;;;;1.67;1.60;;;8.40;98.00;;;;;;5092794;28;20518;-67
2021/11/13 11:39:39;;;;;;;1.93;1.70;;;8.30;98.00;;;;;;5085186;28;20453;-67
2021/11/13 11:42:07;;;;;;;1.90;1.80;;;8.30;98.00;;;;;;5100939;28;20451;-69
2021/11/13 11:44:37;;;;;;;2.03;1.73;;;8.20;98.00;;;;;;5109081;28;20745;-67
2021/11/13 11:47:08;;;;;;;1.67;1.57;;;8.10;98.00;;;;;;5101801;28;20459;-66
2021/11/13 11:49:37;;;;;;;2.80;1.80;;;8.20;98.00;;;;;;5105605;28;20464;-66
2021/11/13 11:52:04;;;;;;;3.70;1.43;;;8.20;98.00;;;;;;5092673;28;20461;-66
2021/11/13 11:54:33;;;;;;;1.90;1.60;;;8.00;98.00;;;;;;5101492;28;20507;-66
2021/11/13 11:56:59;;;;;;;1.33;1.30;;;7.90;98.00;;;;;;5100623;28;20542;-67
2021/11/13 11:59:29;;;;;;;2.43;1.63;;;7.90;98.00;;;;;;5093202;28;20545;-66
2021/11/13 12:02:09;;;;;;;1.30;1.30;;;7.90;98.00;;;;;;5101229;28;20467;-67
2021/11/13 12:04:43;;;;;;;1.97;1.87;;;8.00;98.00;;;;;;5109184;28;20459;-69
2021/11/13 12:07:13;;;;;;;1.77;1.73;;;8.10;98.00;;;;;;5104608;28;20504;-68
2021/11/13 12:10:02;;;;;;;2.23;1.80;;;8.10;98.00;;;;;;5092746;28;20939;-68
2021/11/13 12:12:29;;;;;;;2.17;1.33;;;8.20;98.00;;;;;;5099083;28;20477;-67
2021/11/13 12:15:12;;;;;;;1.80;1.77;;;8.10;98.00;;;;;;5111421;28;20870;-67
2021/11/13 12:17:39;;;;;;;2.60;1.57;;;8.00;98.00;;;;;;5113269;28;20486;-67
2021/11/13 12:20:33;;;;;;;1.50;1.40;;;7.90;98.00;;;;;;5112473;28;20779;-67
2021/11/13 12:23:26;;;;;;;1.30;1.27;;;8.00;98.00;;;;;;5114042;28;20522;-69
2021/11/13 12:26:06;;;;;;;5.20;2.40;;;8.00;98.00;;;;;;5114002;28;20456;-67
2021/11/13 12:28:36;;;;;;;3.40;1.90;;;8.10;98.00;;;;;;5113115;28;20928;-74
2021/11/13 12:31:16;;;;;;;2.53;2.10;;;8.20;98.00;;;;;;5114251;28;20513;-67
2021/11/13 12:34:13;;;;;;;1.47;1.37;;;8.30;98.00;;;;;;5113870;28;20456;-68
2021/11/13 12:36:54;;;;;;;2.90;1.57;;;8.20;98.00;;;;;;5078311;28;20461;-67
2021/11/13 12:39:23;;;;;;;3.07;2.07;;;8.10;98.00;;;;;;5113939;28;20459;-67
2021/11/13 12:42:02;;;;;;;1.57;1.40;;;8.10;98.00;;;;;;5113309;28;20490;-67
2021/11/13 12:44:33;;;;;;;2.17;1.70;;;8.20;98.00;;;;;;5113291;28;20462;-68
2021/11/13 12:47:04;;;;;;;2.90;2.07;;;8.10;98.00;;;;;;5113451;28;20452;-68
2021/11/13 12:49:54;;;;;;;2.40;1.73;;;8.10;98.00;;;;;;5113400;28;20447;-68
2021/11/13 12:52:43;;;;;;;1.77;1.73;;;8.10;98.00;;;;;;5113532;28;20459;-67
2021/11/13 12:55:26;;;;;;;2.83;1.70;;;8.00;98.00;;;;;;5113559;28;20559;-68
2021/11/13 12:58:08;;;;;;;4.60;1.90;;;7.90;98.00;;;;;;5113192;28;20506;-67
2021/11/13 13:00:39;;;;;;;2.23;2.00;;;7.90;98.00;;;;;;5113379;28;20459;-68
2021/11/13 13:03:13;;;;;;;2.33;1.87;;;8.00;98.00;;;;;;5113175;28;20485;-68
2021/11/13 13:05:41;;;;;;;1.87;1.80;;;8.10;98.00;;;;;;5113377;28;20453;-68
2021/11/13 13:08:09;;;;;;;1.80;1.50;;;8.00;98.00;;;;;;5111946;28;20468;-67